createdAt,value
2023-05-03T00:01:41.473Z,7.82
2023-05-03T00:04:09.831Z,8.45
2023-05-03T00:06:38.295Z,8.68
2023-05-03T00:09:06.807Z,9.10
2023-05-03T00:11:35.714Z,8.80
2023-05-03T00:14:04.176Z,8.68
2023-05-03T00:16:32.597Z,8.77
2023-05-03T00:19:02.306Z,7.93
2023-05-03T00:21:31.763Z,8.85
2023-05-03T00:24:00.106Z,8.35
2023-05-03T00:26:29.674Z,8.38
2023-05-03T00:28:57.929Z,8.35
2023-05-03T00:31:26.252Z,8.30
2023-05-03T00:33:54.633Z,7.68
2023-05-03T00:36:24.324Z,8.18
2023-05-03T00:38:52.590Z,8.90
2023-05-03T00:41:21.235Z,7.90
2023-05-03T00:43:49.545Z,7.65
2023-05-03T00:46:18.144Z,8.85
2023-05-03T00:48:47.601Z,8.80
2023-05-03T00:51:18.678Z,8.20
2023-05-03T00:53:48.394Z,9.13
2023-05-03T00:56:22.961Z,7.43
2023-05-03T00:58:53.122Z,10.13
2023-05-03T01:01:22.067Z,9.10
2023-05-03T01:03:50.854Z,8.68
2023-05-03T01:06:32.298Z,10.60
2023-05-03T01:09:10.507Z,8.40
2023-05-03T01:11:48.904Z,8.68
2023-05-03T01:14:28.009Z,9.43
2023-05-03T01:17:05.547Z,8.20
2023-05-03T01:19:38.925Z,8.48
2023-05-03T01:22:23.654Z,9.25
2023-05-03T01:25:02.664Z,9.38
2023-05-03T01:27:30.996Z,9.45
2023-05-03T01:29:59.396Z,9.98
2023-05-03T01:32:37.628Z,8.57
2023-05-03T01:35:13.817Z,7.93
2023-05-03T01:37:43.470Z,9.93
2023-05-03T01:40:16.918Z,9.00
2023-05-03T01:42:45.597Z,8.77
2023-05-03T01:45:14.375Z,9.27
2023-05-03T01:47:42.869Z,8.23
2023-05-03T01:50:11.908Z,8.23
2023-05-03T01:52:40.174Z,8.63
2023-05-03T01:55:09.472Z,8.48
2023-05-03T01:57:39.185Z,8.35
2023-05-03T02:00:10.559Z,9.05
2023-05-03T02:02:38.909Z,8.27
2023-05-03T02:05:08.412Z,7.75
2023-05-03T02:07:36.750Z,7.60
2023-05-03T02:10:06.263Z,8.07
2023-05-03T02:12:34.966Z,8.07
2023-05-03T02:15:05.305Z,8.30
2023-05-03T02:17:34.223Z,7.53
2023-05-03T02:20:02.731Z,7.85
2023-05-03T02:22:31.224Z,7.28
2023-05-03T02:25:00.007Z,8.27
2023-05-03T02:27:28.360Z,8.15
2023-05-03T02:29:56.651Z,8.23
2023-05-03T02:32:26.384Z,7.63
2023-05-03T02:34:55.375Z,7.30
2023-05-03T02:37:23.810Z,8.60
2023-05-03T02:39:52.069Z,9.43
2023-05-03T02:42:20.409Z,9.15
2023-05-03T02:44:48.895Z,8.88
2023-05-03T02:47:17.257Z,8.48
2023-05-03T02:49:48.269Z,9.15
2023-05-03T02:52:16.565Z,7.30
2023-05-03T02:54:46.503Z,7.97
2023-05-03T02:57:14.850Z,7.68
2023-05-03T02:59:43.187Z,7.60
2023-05-03T03:02:11.527Z,7.60
2023-05-03T03:04:39.849Z,8.35
2023-05-03T03:07:09.558Z,8.05
2023-05-03T03:09:37.875Z,8.23
2023-05-03T03:12:06.786Z,7.97
2023-05-03T03:14:35.168Z,8.80
2023-05-03T03:17:03.809Z,7.65
2023-05-03T03:19:32.329Z,7.32
2023-05-03T03:22:00.710Z,7.97
2023-05-03T03:24:30.493Z,7.60
2023-05-03T03:26:58.938Z,7.68
2023-05-03T03:29:28.038Z,7.95
2023-05-03T03:31:56.501Z,8.60
2023-05-03T03:34:24.961Z,8.77
2023-05-03T03:36:53.522Z,8.13
2023-05-03T03:39:21.925Z,7.65
2023-05-03T03:41:51.886Z,7.03
2023-05-03T03:44:20.365Z,8.15
2023-05-03T03:46:48.861Z,8.07
2023-05-03T03:49:17.241Z,7.70
2023-05-03T03:51:45.703Z,7.68
2023-05-03T03:54:14.050Z,8.88
2023-05-03T03:56:42.322Z,7.90
2023-05-03T03:59:12.072Z,7.72
2023-05-03T04:01:40.516Z,8.32
2023-05-03T04:04:09.010Z,8.15
2023-05-03T04:06:37.788Z,8.35
2023-05-03T04:09:06.357Z,8.80
2023-05-03T04:11:35.054Z,9.63
2023-05-03T04:14:04.292Z,8.48
2023-05-03T04:16:34.062Z,9.68
2023-05-03T04:19:03.703Z,10.25
2023-05-03T04:21:32.387Z,10.52
2023-05-03T04:24:02.121Z,10.10
2023-05-03T04:26:31.755Z,9.45
2023-05-03T04:29:00.927Z,10.25
2023-05-03T04:31:30.118Z,10.75
2023-05-03T04:34:00.000Z,10.85
2023-05-03T04:36:30.012Z,9.15
2023-05-03T04:38:58.483Z,9.55
2023-05-03T04:41:26.940Z,11.32
2023-05-03T04:43:55.479Z,9.07
2023-05-03T04:46:23.849Z,10.15
2023-05-03T04:48:52.410Z,10.00
2023-05-03T04:51:22.153Z,8.90
2023-05-03T04:53:50.570Z,9.57
2023-05-03T04:56:20.576Z,9.98
2023-05-03T04:58:49.007Z,8.27
2023-05-03T05:01:17.323Z,8.60
2023-05-03T05:03:45.816Z,8.57
2023-05-03T05:06:14.286Z,8.75
2023-05-03T05:08:43.995Z,6.93
2023-05-03T05:11:14.633Z,7.47
2023-05-03T05:13:43.027Z,7.60
2023-05-03T05:16:11.337Z,8.32
2023-05-03T05:18:39.679Z,8.40
2023-05-03T05:21:08.038Z,8.18
2023-05-03T05:23:36.372Z,8.73
2023-05-03T05:26:06.307Z,8.90
2023-05-03T05:28:34.850Z,8.10
2023-05-03T05:31:03.357Z,8.50
2023-05-03T05:33:31.766Z,8.20
2023-05-03T05:36:00.539Z,9.23
2023-05-03T05:38:29.017Z,8.60
2023-05-03T05:40:57.381Z,9.45
2023-05-03T05:43:27.128Z,9.57
2023-05-03T05:45:55.628Z,8.57
2023-05-03T05:48:24.037Z,7.78
2023-05-03T05:50:52.449Z,8.25
2023-05-03T05:53:20.826Z,8.45
2023-05-03T05:55:49.152Z,8.23
2023-05-03T05:58:17.811Z,8.23
2023-05-03T06:00:49.373Z,8.98
2023-05-03T06:03:18.265Z,7.70
2023-05-03T06:05:46.709Z,7.25
2023-05-03T06:08:15.041Z,7.53
2023-05-03T06:10:44.098Z,7.80
2023-05-03T06:13:12.450Z,7.93
2023-05-03T06:15:41.669Z,7.53
2023-05-03T06:18:11.510Z,7.20
2023-05-03T06:20:40.124Z,7.40
2023-05-03T06:23:08.491Z,7.18
2023-05-03T06:25:37.229Z,6.55
2023-05-03T06:28:05.964Z,7.18
2023-05-03T06:30:35.261Z,7.57
2023-05-03T06:33:04.265Z,6.30
2023-05-03T06:35:34.490Z,7.35
2023-05-03T06:38:02.859Z,7.13
2023-05-03T06:40:31.280Z,7.15
2023-05-03T06:42:59.630Z,7.38
2023-05-03T06:45:28.013Z,7.90
2023-05-03T06:47:56.520Z,8.68
2023-05-03T06:50:24.945Z,8.70
2023-05-03T06:52:55.500Z,7.32
2023-05-03T06:55:23.925Z,7.78
2023-05-03T06:57:52.514Z,7.82
2023-05-03T07:00:23.125Z,8.00
2023-05-03T07:02:51.548Z,7.70
2023-05-03T07:05:20.199Z,9.82
2023-05-03T07:07:48.534Z,8.52
2023-05-03T07:10:18.342Z,9.35
2023-05-03T07:12:46.769Z,8.00
2023-05-03T07:15:15.729Z,8.73
2023-05-03T07:17:44.187Z,7.68
2023-05-03T07:20:14.002Z,8.25
2023-05-03T07:22:42.416Z,7.53
2023-05-03T07:25:12.421Z,8.20
2023-05-03T07:27:42.399Z,7.90
2023-05-03T07:30:11.870Z,7.78
2023-05-03T07:32:40.573Z,8.02
2023-05-03T07:35:11.045Z,8.23
2023-05-03T07:37:39.820Z,8.18
2023-05-03T07:40:10.243Z,7.65
2023-05-03T07:42:38.618Z,6.30
2023-05-03T07:45:10.575Z,7.60
2023-05-03T07:47:40.124Z,6.72
2023-05-03T07:50:09.621Z,7.20
2023-05-03T07:52:38.851Z,7.35
2023-05-03T07:55:09.462Z,7.30
2023-05-03T07:57:37.918Z,6.65
2023-05-03T08:00:12.477Z,7.05
2023-05-03T08:02:41.220Z,7.57
2023-05-03T08:05:11.531Z,7.63
2023-05-03T08:07:40.089Z,7.97
2023-05-03T08:10:09.754Z,7.15
2023-05-03T08:12:38.456Z,7.00
2023-05-03T08:15:11.565Z,8.30
2023-05-03T08:17:44.395Z,6.65
2023-05-03T08:20:15.667Z,6.80
2023-05-03T08:22:45.224Z,7.90
2023-05-03T08:25:13.739Z,8.48
2023-05-03T08:27:42.148Z,7.88
2023-05-03T08:30:12.785Z,6.18
2023-05-03T08:32:41.245Z,6.88
2023-05-03T08:35:11.022Z,8.30
2023-05-03T08:37:41.033Z,8.70
2023-05-03T08:40:12.114Z,7.47
2023-05-03T08:42:42.326Z,7.07
2023-05-03T08:45:15.947Z,8.00
2023-05-03T08:47:45.837Z,8.05
2023-05-03T08:50:16.150Z,7.28
2023-05-03T08:52:45.752Z,7.35
2023-05-03T08:55:14.566Z,7.43
2023-05-03T08:57:43.016Z,7.97
2023-05-03T09:00:15.827Z,8.13
2023-05-03T09:02:44.347Z,8.20
2023-05-03T09:05:35.936Z,7.20
2023-05-03T09:08:06.378Z,8.05
2023-05-03T09:10:38.290Z,8.00
2023-05-03T09:13:07.597Z,7.70
2023-05-03T09:15:38.119Z,7.35
2023-05-03T09:18:12.564Z,7.20
2023-05-03T09:20:51.460Z,6.68
2023-05-03T09:23:29.800Z,6.63
2023-05-03T09:25:59.110Z,6.45
2023-05-03T09:28:27.954Z,5.55
2023-05-03T09:31:11.372Z,5.57
2023-05-03T09:33:40.826Z,5.45
2023-05-03T09:36:11.041Z,6.05
2023-05-03T09:38:39.509Z,5.95
2023-05-03T09:41:07.978Z,6.50
2023-05-03T09:43:36.877Z,5.72
2023-05-03T09:46:14.196Z,6.60
2023-05-03T09:48:43.453Z,5.93
2023-05-03T09:51:13.040Z,7.35
2023-05-03T09:53:42.677Z,6.50
2023-05-03T09:56:13.736Z,6.20
2023-05-03T09:58:43.715Z,6.13
2023-05-03T10:01:16.263Z,5.95
2023-05-03T10:03:47.555Z,5.45
2023-05-03T10:06:36.864Z,6.18
2023-05-03T10:09:14.451Z,6.40
2023-05-03T10:11:49.301Z,6.03
2023-05-03T10:14:18.350Z,6.65
2023-05-03T10:16:53.978Z,5.80
2023-05-03T10:19:28.803Z,5.68
2023-05-03T10:22:05.085Z,6.10
2023-05-03T10:24:34.661Z,5.03
2023-05-03T10:27:03.572Z,5.95
2023-05-03T10:29:52.351Z,5.68
2023-05-03T10:32:33.561Z,5.80
2023-05-03T10:35:06.207Z,5.47
2023-05-03T10:37:36.281Z,5.13
2023-05-03T10:40:13.833Z,5.70
2023-05-03T10:42:50.944Z,5.47
2023-05-03T10:45:26.428Z,5.65
2023-05-03T10:48:20.888Z,6.28
2023-05-03T10:50:50.285Z,6.47
2023-05-03T10:53:40.114Z,5.47
2023-05-03T10:56:11.059Z,6.20
2023-05-03T10:58:47.659Z,6.00
2023-05-03T11:01:18.673Z,5.95
2023-05-03T11:03:53.602Z,4.93
2023-05-03T11:06:36.658Z,5.32
2023-05-03T11:09:07.686Z,5.72
2023-05-03T11:11:39.313Z,6.28
2023-05-03T11:14:08.918Z,5.68
2023-05-03T11:16:40.610Z,5.20
2023-05-03T11:19:10.473Z,4.93
2023-05-03T11:21:38.882Z,5.22
2023-05-03T11:24:08.285Z,5.70
2023-05-03T11:26:39.776Z,5.13
2023-05-03T11:29:10.853Z,5.18
2023-05-03T11:31:43.078Z,5.18
2023-05-03T11:34:14.597Z,4.70
2023-05-03T11:36:43.333Z,12.93
2023-05-03T11:39:14.492Z,7.72
2023-05-03T11:41:44.218Z,10.82
2023-05-03T11:44:17.567Z,6.45
2023-05-03T11:46:48.086Z,8.35
2023-05-03T11:49:20.758Z,9.23
2023-05-03T11:51:52.670Z,6.38
2023-05-03T11:54:26.983Z,8.25
2023-05-03T11:56:59.374Z,14.15
2023-05-03T11:59:40.464Z,9.25
2023-05-03T12:02:11.113Z,6.85
2023-05-03T12:04:43.615Z,13.20
2023-05-03T12:07:15.426Z,17.15
2023-05-03T12:09:52.509Z,21.98
2023-05-03T12:12:32.841Z,7.63
2023-05-03T12:15:07.875Z,8.85
2023-05-03T12:17:44.602Z,16.05
2023-05-03T12:22:57.633Z,6.82
2023-05-03T12:25:29.146Z,9.00
2023-05-03T12:28:17.785Z,10.27
2023-05-03T12:30:48.665Z,11.70
2023-05-03T12:33:21.705Z,7.35
2023-05-03T12:35:54.149Z,9.60
2023-05-03T12:38:24.777Z,7.15
2023-05-03T12:40:54.943Z,13.73
2023-05-03T12:43:23.694Z,11.27
2023-05-03T12:46:07.558Z,19.17
2023-05-03T12:48:40.721Z,26.23
2023-05-03T12:53:44.717Z,12.25
2023-05-03T12:56:15.772Z,9.57
2023-05-03T12:59:07.632Z,6.55
2023-05-03T13:02:41.081Z,7.43
2023-05-03T13:07:00.281Z,6.43
2023-05-03T13:09:38.511Z,6.55
2023-05-03T13:12:20.479Z,6.80
2023-05-03T13:14:49.836Z,6.03
2023-05-03T13:17:20.482Z,5.35
2023-05-03T13:19:49.437Z,4.75
2023-05-03T13:22:19.749Z,5.63
2023-05-03T13:24:49.086Z,5.20
2023-05-03T13:27:18.982Z,5.53
2023-05-03T13:29:49.366Z,4.65
2023-05-03T13:32:19.843Z,4.00
2023-05-03T13:34:48.198Z,4.68
2023-05-03T13:37:19.374Z,4.90
2023-05-03T13:39:47.957Z,3.67
2023-05-03T13:42:16.379Z,4.68
2023-05-03T13:44:47.801Z,4.50
2023-05-03T13:47:16.455Z,4.53
2023-05-03T13:49:44.825Z,4.88
2023-05-03T13:52:13.302Z,4.72
2023-05-03T13:54:43.494Z,5.25
2023-05-03T13:57:11.903Z,5.18
2023-05-03T13:59:40.372Z,4.68
2023-05-03T14:02:09.028Z,4.28
2023-05-03T14:04:37.536Z,4.95
2023-05-03T14:07:06.149Z,5.03
2023-05-03T14:09:39.340Z,4.95
2023-05-03T14:12:09.742Z,4.72
2023-05-03T14:14:38.203Z,4.60
2023-05-03T14:17:06.811Z,4.18
2023-05-03T14:19:37.379Z,5.13
2023-05-03T14:22:05.784Z,4.97
2023-05-03T14:24:34.235Z,5.03
2023-05-03T14:27:03.136Z,5.43
2023-05-03T14:29:33.154Z,4.15
2023-05-03T14:32:01.605Z,4.07
2023-05-03T14:34:30.037Z,5.40
2023-05-03T14:36:58.755Z,4.97
2023-05-03T14:39:27.377Z,3.58
2023-05-03T14:41:56.468Z,4.30
2023-05-03T14:44:25.254Z,3.67
2023-05-03T14:46:58.786Z,4.60
2023-05-03T14:49:27.252Z,4.75
2023-05-03T14:51:55.717Z,4.43
2023-05-03T14:54:24.167Z,5.38
2023-05-03T14:56:52.535Z,4.10
2023-05-03T14:59:20.956Z,4.93
2023-05-03T15:01:49.280Z,5.55
2023-05-03T15:04:19.040Z,4.80
2023-05-03T15:06:47.682Z,4.72
2023-05-03T15:09:16.096Z,4.85
2023-05-03T15:11:45.589Z,4.22
2023-05-03T15:14:14.009Z,5.07
2023-05-03T15:16:42.538Z,5.28
2023-05-03T15:19:10.974Z,5.78
2023-05-03T15:21:52.795Z,4.32
2023-05-03T15:24:21.949Z,6.15
2023-05-03T15:26:51.499Z,4.15
2023-05-03T15:29:19.898Z,5.63
2023-05-03T15:31:48.231Z,5.28
2023-05-03T15:34:16.579Z,4.78
2023-05-03T15:36:44.946Z,6.10
2023-05-03T15:39:14.838Z,5.55
2023-05-03T15:41:45.555Z,4.20
2023-05-03T15:44:15.043Z,4.75
2023-05-03T15:46:44.324Z,5.70
2023-05-03T15:49:13.047Z,4.78
2023-05-03T15:51:41.417Z,5.18
2023-05-03T15:54:09.762Z,5.82
2023-05-03T15:56:40.221Z,4.70
2023-05-03T15:59:08.774Z,5.47
2023-05-03T16:01:37.904Z,5.18
2023-05-03T16:04:07.714Z,5.32
2023-05-03T16:06:36.156Z,5.50
2023-05-03T16:09:06.531Z,6.25
2023-05-03T16:11:35.801Z,5.47
2023-05-03T16:14:09.340Z,5.05
2023-05-03T16:16:38.996Z,5.93
2023-05-03T16:19:08.863Z,4.78
2023-05-03T16:21:37.308Z,5.70
2023-05-03T16:24:06.407Z,4.85
2023-05-03T16:26:36.411Z,5.70
2023-05-03T16:29:06.166Z,4.70
2023-05-03T16:31:34.783Z,4.63
2023-05-03T16:34:03.796Z,5.32
2023-05-03T16:36:32.787Z,5.88
2023-05-03T16:39:01.225Z,5.72
2023-05-03T16:41:29.573Z,5.72
2023-05-03T16:43:57.913Z,6.00
2023-05-03T16:46:27.690Z,5.18
2023-05-03T16:48:56.178Z,5.55
2023-05-03T16:51:24.570Z,6.25
2023-05-03T16:53:53.464Z,6.38
2023-05-03T16:56:22.936Z,4.72
2023-05-03T16:58:51.856Z,4.95
2023-05-03T17:01:20.480Z,5.70
2023-05-03T17:03:50.354Z,5.53
2023-05-03T17:06:18.916Z,4.45
2023-05-03T17:08:47.427Z,5.35
2023-05-03T17:11:16.166Z,4.93
2023-05-03T17:13:44.613Z,6.57
2023-05-03T17:16:15.607Z,4.88
2023-05-03T17:18:44.391Z,5.47
2023-05-03T17:21:14.160Z,4.88
2023-05-03T17:23:42.861Z,5.18
2023-05-03T17:26:13.175Z,6.00
2023-05-03T17:28:42.229Z,5.07
2023-05-03T17:31:10.981Z,6.20
2023-05-03T17:33:39.329Z,5.45
2023-05-03T17:36:08.540Z,5.63
2023-05-03T17:38:38.253Z,4.93
2023-05-03T17:41:08.770Z,5.40
2023-05-03T17:43:38.243Z,5.57
2023-05-03T17:46:11.320Z,5.82
2023-05-03T17:48:42.714Z,6.15
2023-05-03T17:51:12.802Z,4.80
2023-05-03T17:53:43.566Z,5.47
2023-05-03T17:56:16.130Z,5.30
2023-05-03T17:58:47.347Z,5.68
2023-05-03T18:01:16.596Z,5.30
2023-05-03T18:03:45.225Z,5.32
2023-05-03T18:06:14.866Z,5.68
2023-05-03T18:08:44.721Z,4.32
2023-05-03T18:11:13.182Z,4.75
2023-05-03T18:13:41.934Z,4.50
2023-05-03T18:16:11.479Z,4.70
2023-05-03T18:18:40.246Z,5.50
2023-05-03T18:21:11.740Z,5.78
2023-05-03T18:23:41.169Z,5.35
2023-05-03T18:26:12.116Z,6.30
2023-05-03T18:28:40.950Z,5.93
2023-05-03T18:31:11.244Z,6.47
2023-05-03T18:33:42.644Z,6.15
2023-05-03T18:36:13.957Z,6.10
2023-05-03T18:38:43.432Z,5.88
2023-05-03T18:41:16.051Z,6.05
2023-05-03T18:43:46.695Z,7.03
2023-05-03T18:46:21.251Z,6.55
2023-05-03T18:48:51.095Z,6.72
2023-05-03T18:51:21.203Z,6.53
2023-05-03T18:53:51.027Z,6.90
2023-05-03T18:56:21.345Z,6.07
2023-05-03T18:58:50.427Z,6.10
2023-05-03T19:01:20.280Z,5.68
2023-05-03T19:03:49.162Z,7.55
2023-05-03T19:06:18.451Z,6.25
2023-05-03T19:08:47.498Z,6.82
2023-05-03T19:11:21.922Z,6.78
2023-05-03T19:13:52.593Z,6.25
2023-05-03T19:16:22.912Z,7.35
2023-05-03T19:18:51.409Z,5.93
2023-05-03T19:21:20.786Z,7.00
2023-05-03T19:23:50.015Z,7.18
2023-05-03T19:26:19.206Z,6.00
2023-05-03T19:28:48.175Z,6.45
2023-05-03T19:31:20.859Z,6.45
2023-05-03T19:33:51.947Z,7.25
2023-05-03T19:36:20.712Z,6.68
2023-05-03T19:38:51.538Z,6.72
2023-05-03T19:41:21.513Z,7.70
2023-05-03T19:43:53.005Z,7.28
2023-05-03T19:46:25.160Z,7.53
2023-05-03T19:48:54.524Z,6.80
2023-05-03T19:51:24.017Z,6.70
2023-05-03T19:53:53.293Z,7.43
2023-05-03T19:56:22.542Z,8.45
2023-05-03T19:58:51.808Z,8.30
2023-05-03T20:01:22.568Z,7.07
2023-05-03T20:03:54.204Z,7.47
2023-05-03T20:06:23.349Z,7.25
2023-05-03T20:08:52.414Z,6.38
2023-05-03T20:11:22.111Z,8.07
2023-05-03T20:13:51.149Z,6.85
2023-05-03T20:16:21.867Z,7.57
2023-05-03T20:18:52.833Z,7.80
2023-05-03T20:21:21.654Z,7.70
2023-05-03T20:23:50.612Z,7.82
2023-05-03T20:26:19.291Z,7.35
2023-05-03T20:28:47.675Z,7.65
2023-05-03T20:31:17.289Z,7.15
2023-05-03T20:33:46.052Z,7.43
2023-05-03T20:36:15.764Z,7.45
2023-05-03T20:38:44.295Z,7.57
2023-05-03T20:41:12.680Z,8.27
2023-05-03T20:43:41.337Z,7.53
2023-05-03T20:46:09.721Z,7.88
2023-05-03T20:48:38.310Z,8.35
2023-05-03T20:51:09.568Z,7.88
2023-05-03T20:53:39.438Z,8.40
2023-05-03T20:56:08.073Z,10.05
2023-05-03T20:58:36.653Z,8.32
2023-05-03T21:01:06.616Z,8.25
2023-05-03T21:03:35.817Z,9.27
2023-05-03T21:06:05.589Z,8.48
2023-05-03T21:08:34.106Z,8.35
2023-05-03T21:11:04.219Z,8.98
2023-05-03T21:13:35.650Z,8.38
2023-05-03T21:16:04.390Z,8.10
2023-05-03T21:18:33.239Z,10.25
2023-05-03T21:21:01.724Z,9.38
2023-05-03T21:23:30.127Z,9.57
2023-05-03T21:25:58.538Z,10.00
2023-05-03T21:28:30.467Z,9.05
2023-05-03T21:30:59.958Z,8.18
2023-05-03T21:33:28.745Z,9.60
2023-05-03T21:35:57.193Z,9.30
2023-05-03T21:38:25.676Z,10.32
2023-05-03T21:40:54.021Z,10.75
2023-05-03T21:43:22.402Z,9.40
2023-05-03T21:45:52.528Z,9.82
2023-05-03T21:48:23.519Z,10.25
2023-05-03T21:50:51.954Z,9.15
2023-05-03T21:53:20.760Z,9.85
2023-05-03T21:55:49.196Z,10.20
2023-05-03T21:58:17.634Z,12.13
2023-05-03T22:00:46.088Z,11.32
2023-05-03T22:03:16.093Z,10.73
2023-05-03T22:05:47.852Z,10.90
2023-05-03T22:08:18.186Z,11.65
2023-05-03T22:10:46.775Z,11.15
2023-05-03T22:13:15.289Z,9.68
2023-05-03T22:15:43.802Z,10.00
2023-05-03T22:18:12.215Z,9.98
2023-05-03T22:20:42.352Z,9.57
2023-05-03T22:23:10.846Z,9.82
2023-05-03T22:25:39.250Z,9.73
2023-05-03T22:28:07.583Z,9.68
2023-05-03T22:30:35.936Z,10.48
2023-05-03T22:33:04.443Z,10.10
2023-05-03T22:35:32.982Z,9.88
2023-05-03T22:38:03.726Z,10.25
2023-05-03T22:40:32.252Z,9.90
2023-05-03T22:43:00.821Z,11.05
2023-05-03T22:45:29.270Z,10.27
2023-05-03T22:47:57.827Z,10.13
2023-05-03T22:50:26.398Z,10.85
2023-05-03T22:52:54.828Z,8.45
2023-05-03T22:55:24.570Z,9.80
2023-05-03T22:57:52.872Z,9.25
2023-05-03T23:00:22.539Z,9.38
2023-05-03T23:02:51.009Z,9.25
2023-05-03T23:05:19.655Z,9.45
2023-05-03T23:07:48.066Z,8.85
2023-05-03T23:10:16.647Z,7.82
2023-05-03T23:12:46.441Z,9.27
2023-05-03T23:15:15.111Z,9.05
2023-05-03T23:17:43.448Z,8.30
2023-05-03T23:20:15.709Z,8.57
2023-05-03T23:22:44.099Z,8.23
2023-05-03T23:25:12.473Z,9.63
2023-05-03T23:27:40.831Z,8.30
2023-05-03T23:30:12.435Z,9.43
2023-05-03T23:32:41.618Z,8.85
2023-05-03T23:35:10.829Z,8.20
2023-05-03T23:37:39.116Z,8.77
2023-05-03T23:40:10.763Z,8.57
2023-05-03T23:42:39.700Z,8.68
2023-05-03T23:45:11.413Z,8.63
2023-05-03T23:47:39.796Z,7.72
2023-05-03T23:50:10.348Z,7.90
2023-05-03T23:52:38.920Z,6.70
2023-05-03T23:55:09.130Z,6.10
2023-05-03T23:57:37.541Z,6.65
